Time;durP1;ratioP1;P1;durP2;ratioP2;P2;SDS_P1;SDS_P2;PMS_P1;PMS_P2;Temp;Humidity;BMP_temperature;BMP_pressure;BME280_temperature;BME280_humidity;BME280_pressure;Samples;Min_cycle;Max_cycle;Signal;HPM_P1;HPM_P2
2021/07/31 00:03:03;;;;;;;6.20;4.30;;;;;;;18.62;72.04;100312.38;10116716;28;20097;-70
2021/07/31 00:08:00;;;;;;;6.82;3.83;;;;;;;18.63;71.35;100310.38;10123488;28;20157;-72
2021/07/31 00:12:56;;;;;;;6.53;3.75;;;;;;;18.52;71.36;100290.94;10119087;28;20105;-72
2021/07/31 00:17:52;;;;;;;5.00;3.00;;;;;;;18.37;71.19;100294.75;10121080;28;20042;-71
2021/07/31 00:22:49;;;;;;;4.40;3.00;;;;;;;18.50;69.61;100273.91;10122046;28;20047;-69
2021/07/31 00:27:46;;;;;;;6.03;2.88;;;;;;;18.57;69.47;100285.03;10122004;28;20066;-70
2021/07/31 00:32:42;;;;;;;7.28;2.60;;;;;;;18.45;68.46;100288.06;10121676;28;20098;-69
2021/07/31 00:37:39;;;;;;;5.65;2.63;;;;;;;18.42;66.95;100300.72;10127096;28;20046;-71
2021/07/31 00:42:39;;;;;;;6.80;3.40;;;;;;;18.51;66.79;100292.09;10124114;28;20514;-69
2021/07/31 00:47:37;;;;;;;5.93;2.63;;;;;;;18.58;66.31;100292.16;10122578;28;20062;-70
2021/07/31 00:52:35;;;;;;;5.45;2.72;;;;;;;18.52;65.34;100296.47;10121889;28;20092;-70
2021/07/31 00:57:32;;;;;;;5.75;2.40;;;;;;;18.51;66.27;100292.09;10111463;28;20062;-70
2021/07/31 01:02:30;;;;;;;4.85;2.80;;;;;;;18.51;66.77;100292.09;10118574;28;20042;-71
2021/07/31 01:07:26;;;;;;;4.22;2.03;;;;;;;18.45;67.23;100283.34;10111481;28;20047;-70
2021/07/31 01:12:23;;;;;;;5.50;2.75;;;;;;;18.40;66.98;100280.13;10106295;28;20501;-71
2021/07/31 01:17:19;;;;;;;4.82;2.53;;;;;;;18.35;66.94;100283.25;10113975;28;20047;-71
2021/07/31 01:22:16;;;;;;;4.57;2.20;;;;;;;18.27;67.08;100277.66;10112097;28;20046;-69
2021/07/31 01:27:12;;;;;;;7.72;2.90;;;;;;;18.26;67.12;100286.31;10114660;28;20047;-70
2021/07/31 01:32:08;;;;;;;5.63;2.47;;;;;;;18.20;67.94;100293.41;10110194;28;20077;-71
2021/07/31 01:37:05;;;;;;;6.95;3.97;;;;;;;18.14;69.67;100281.06;10115084;28;20050;-71
2021/07/31 01:42:04;;;;;;;7.25;4.30;;;;;;;18.06;71.20;100288.50;10111322;28;20109;-70
2021/07/31 01:47:00;;;;;;;6.80;5.05;;;;;;;17.96;72.40;100290.00;10105816;28;20130;-70
2021/07/31 01:51:57;;;;;;;9.15;6.05;;;;;;;17.88;73.67;100289.09;10114607;28;20153;-71
2021/07/31 01:57:04;;;;;;;9.23;6.40;;;;;;;17.65;75.15;100293.94;10111599;28;20685;-69
2021/07/31 02:02:01;;;;;;;8.32;5.28;;;;;;;17.71;74.56;100294.38;10108271;28;20067;-70
2021/07/31 02:06:57;;;;;;;6.50;3.83;;;;;;;17.61;73.20;100284.78;10114510;28;20513;-73
2021/07/31 02:11:54;;;;;;;6.72;3.38;;;;;;;17.56;71.84;100282.38;10110716;28;20141;-72
2021/07/31 02:16:50;;;;;;;6.05;3.05;;;;;;;17.51;69.88;100296.53;10113734;28;20055;-70
2021/07/31 02:21:47;;;;;;;5.07;2.17;;;;;;;17.43;67.97;100268.78;10115084;28;20078;-70
2021/07/31 02:26:43;;;;;;;7.28;2.28;;;;;;;17.42;68.38;100258.09;10098637;28;20130;-72
2021/07/31 02:31:40;;;;;;;6.03;2.67;;;;;;;17.34;67.57;100254.47;10103556;28;20167;-70
2021/07/31 02:36:37;;;;;;;6.20;2.25;;;;;;;17.20;67.11;100260.59;10110883;28;20050;-70
2021/07/31 02:41:33;;;;;;;4.78;1.95;;;;;;;17.17;67.43;100260.53;10104458;28;20051;-70
2021/07/31 02:46:30;;;;;;;5.78;2.00;;;;;;;17.21;67.29;100253.09;10117383;28;20126;-69
2021/07/31 02:51:26;;;;;;;9.02;2.33;;;;;;;17.21;66.66;100250.34;10112487;28;20655;-69
2021/07/31 02:56:23;;;;;;;6.38;1.83;;;;;;;17.20;66.59;100259.81;10100546;28;20138;-69
2021/07/31 03:01:19;;;;;;;7.65;1.85;;;;;;;17.24;66.31;100260.63;10097300;28;20051;-71
2021/07/31 03:06:16;;;;;;;4.93;1.70;;;;;;;17.24;65.69;100244.88;10108744;28;20110;-70
2021/07/31 03:11:12;;;;;;;6.32;2.33;;;;;;;17.25;65.93;100240.13;10096764;28;20070;-71
2021/07/31 03:16:09;;;;;;;7.15;1.98;;;;;;;17.25;66.53;100234.59;10102390;28;20132;-70
2021/07/31 03:21:05;;;;;;;7.45;1.50;;;;;;;17.12;66.94;100230.47;10100750;28;20525;-71
2021/07/31 03:26:02;;;;;;;7.57;1.92;;;;;;;17.11;67.30;100231.66;10100366;28;20071;-72
2021/07/31 03:30:58;;;;;;;2.90;1.50;;;;;;;17.14;67.37;100223.41;10111441;28;20504;-72
2021/07/31 03:35:55;;;;;;;5.43;1.90;;;;;;;17.18;67.76;100212.41;10103699;28;20509;-70
2021/07/31 03:40:52;;;;;;;4.45;1.83;;;;;;;17.07;68.41;100206.75;10085110;28;20066;-69
2021/07/31 03:45:49;;;;;;;6.18;2.00;;;;;;;17.04;68.61;100224.06;10106622;28;20051;-69
2021/07/31 03:50:45;;;;;;;4.78;2.08;;;;;;;16.97;68.89;100213.72;10120309;28;20051;-69
2021/07/31 03:55:46;;;;;;;7.60;2.70;;;;;;;17.01;68.78;100206.28;10111873;28;20094;-69
2021/07/31 04:00:43;;;;;;;4.68;1.80;;;;;;;17.08;68.77;100202.00;10113852;28;20105;-70
2021/07/31 04:05:40;;;;;;;7.00;2.10;;;;;;;17.04;67.98;100202.75;10099300;28;20044;-72
2021/07/31 04:10:36;;;;;;;4.82;2.08;;;;;;;17.07;67.84;100217.00;10100229;28;20117;-70
2021/07/31 04:15:33;;;;;;;6.43;1.90;;;;;;;16.97;67.04;100213.72;10094419;28;20546;-70
2021/07/31 04:20:29;;;;;;;4.05;1.50;;;;;;;17.08;66.32;100204.78;10109248;28;20070;-69
2021/07/31 04:25:25;;;;;;;5.03;1.65;;;;;;;17.01;67.24;100203.53;10102830;28;20074;-69
2021/07/31 04:30:22;;;;;;;5.78;1.80;;;;;;;17.03;67.86;100206.72;10100185;28;20085;-72
2021/07/31 04:35:18;;;;;;;6.15;1.73;;;;;;;17.00;68.26;100212.97;10104698;28;20066;-70
2021/07/31 04:40:15;;;;;;;6.35;1.77;;;;;;;17.02;68.44;100199.56;10107388;28;20042;-70
2021/07/31 04:45:11;;;;;;;6.35;2.53;;;;;;;16.97;68.67;100202.66;10113626;28;20081;-70
2021/07/31 04:50:09;;;;;;;5.00;1.70;;;;;;;17.11;68.15;100190.22;10119612;28;20078;-69
2021/07/31 04:55:07;;;;;;;5.25;2.03;;;;;;;17.08;67.65;100190.97;10114056;28;20584;-71
2021/07/31 05:00:04;;;;;;;6.88;1.90;;;;;;;17.04;67.84;100191.72;10119641;28;20097;-73
2021/07/31 05:05:00;;;;;;;4.10;1.70;;;;;;;17.01;67.70;100191.66;10110719;28;20055;-69
2021/07/31 05:09:57;;;;;;;4.32;1.92;;;;;;;17.10;67.71;100194.16;10113067;28;20061;-68
2021/07/31 05:14:54;;;;;;;8.43;1.98;;;;;;;17.09;67.98;100189.81;10110025;28;20105;-70
2021/07/31 05:19:51;;;;;;;6.88;2.05;;;;;;;17.03;67.89;100184.63;10113373;28;20094;-71
2021/07/31 05:24:53;;;;;;;10.40;2.35;;;;;;;16.97;68.14;100190.84;10114590;28;20460;-70
2021/07/31 05:29:50;;;;;;;8.57;2.10;;;;;;;17.07;67.47;100183.84;10106244;28;20575;-72
2021/07/31 05:34:46;;;;;;;12.02;2.13;;;;;;;17.07;67.48;100178.34;10114049;28;20457;-69
2021/07/31 05:39:43;;;;;;;5.03;1.80;;;;;;;17.14;66.77;100178.41;10112400;28;20070;-68
2021/07/31 05:44:43;;;;;;;10.27;1.80;;;;;;;17.11;66.54;100184.69;10102319;28;20043;-72
2021/07/31 05:49:40;;;;;;;8.90;2.05;;;;;;;16.98;66.20;100189.66;10116914;28;20669;-69
2021/07/31 05:54:36;;;;;;;5.07;1.60;;;;;;;17.02;66.06;100188.53;10116223;28;20530;-70
2021/07/31 05:59:33;;;;;;;5.68;1.77;;;;;;;16.87;66.13;100183.19;10117114;28;20194;-70
2021/07/31 06:04:29;;;;;;;4.90;1.70;;;;;;;16.90;66.46;100177.72;10114531;28;20051;-69
2021/07/31 06:09:26;;;;;;;6.38;1.58;;;;;;;16.98;66.06;100171.09;10109353;28;20046;-69
2021/07/31 06:14:23;;;;;;;7.03;1.73;;;;;;;16.94;65.51;100191.56;10104869;28;20103;-69
2021/07/31 06:19:20;;;;;;;5.00;1.33;;;;;;;16.98;65.81;100181.38;10092564;28;20485;-70
2021/07/31 06:24:17;;;;;;;4.38;1.60;;;;;;;17.00;65.53;100179.81;10106199;28;20047;-70
2021/07/31 06:29:14;;;;;;;5.82;1.50;;;;;;;16.98;65.27;100182.16;10108989;28;20675;-70
2021/07/31 06:34:11;;;;;;;8.02;1.85;;;;;;;17.02;65.17;100176.69;10098168;28;20102;-70
2021/07/31 06:39:08;;;;;;;6.13;1.98;;;;;;;17.06;64.88;100183.06;10106052;28;20471;-70
2021/07/31 06:44:05;;;;;;;5.03;1.73;;;;;;;17.03;64.65;100178.28;10107056;28;20105;-73
2021/07/31 06:49:03;;;;;;;6.88;1.48;;;;;;;17.06;64.17;100176.72;10105654;28;20111;-73
2021/07/31 06:54:02;;;;;;;5.22;1.80;;;;;;;17.10;64.45;100177.56;10112818;28;20046;-73
2021/07/31 06:58:58;;;;;;;8.30;1.80;;;;;;;17.02;63.96;100174.72;10116194;28;20616;-72
2021/07/31 07:03:55;;;;;;;7.50;2.13;;;;;;;17.10;63.97;100177.56;10110191;28;20058;-70
2021/07/31 07:08:51;;;;;;;7.80;1.95;;;;;;;17.25;63.71;100168.31;10103362;28;20129;-70
2021/07/31 07:13:47;;;;;;;7.18;1.88;;;;;;;17.18;63.45;100157.16;10113156;28;20398;-71
2021/07/31 07:18:44;;;;;;;9.38;2.25;;;;;;;17.16;63.71;100176.09;10109364;28;20127;-70
2021/07/31 07:23:40;;;;;;;4.85;1.63;;;;;;;17.37;63.08;100165.28;10108945;28;20133;-71
2021/07/31 07:28:37;;;;;;;5.95;1.70;;;;;;;17.32;63.14;100146.28;10099828;28;20093;-71
2021/07/31 07:33:34;;;;;;;8.43;2.13;;;;;;;17.52;63.02;100155.19;10103317;28;20085;-71
2021/07/31 07:38:31;;;;;;;5.28;1.75;;;;;;;17.51;62.53;100158.31;10078521;28;20070;-69
2021/07/31 07:43:28;;;;;;;8.43;2.15;;;;;;;17.52;62.66;100157.97;10084460;28;20122;-67
2021/07/31 07:48:24;;;;;;;3.40;1.38;;;;;;;17.49;62.68;100155.16;10099636;28;21003;-67
2021/07/31 07:53:21;;;;;;;5.05;1.75;;;;;;;17.39;62.75;100151.88;10106681;28;20047;-67
2021/07/31 07:58:17;;;;;;;7.38;2.10;;;;;;;17.37;63.04;100165.28;10101400;28;20473;-67
2021/07/31 08:03:14;;;;;;;5.95;1.40;;;;;;;17.43;62.99;100163.78;10087182;28;20093;-67
2021/07/31 08:08:11;;;;;;;6.03;1.60;;;;;;;17.50;62.75;100156.72;10102234;28;20102;-67
2021/07/31 08:13:08;;;;;;;4.88;1.50;;;;;;;17.31;63.35;100152.19;10103431;28;20464;-66
2021/07/31 08:18:04;;;;;;;5.72;1.52;;;;;;;17.44;63.79;100164.56;10108382;28;20051;-67
2021/07/31 08:23:01;;;;;;;3.97;1.20;;;;;;;17.43;63.91;100163.78;10113162;28;20141;-67
2021/07/31 08:27:57;;;;;;;5.85;1.80;;;;;;;17.44;64.20;100148.78;10112796;28;20121;-67
2021/07/31 08:32:53;;;;;;;5.88;1.83;;;;;;;17.61;63.72;100174.22;10088708;28;20048;-67
2021/07/31 08:37:50;;;;;;;6.00;1.75;;;;;;;17.66;63.82;100149.00;10095592;28;20047;-67
2021/07/31 08:42:47;;;;;;;6.28;1.77;;;;;;;17.88;63.34;100156.34;10089410;28;20148;-68
2021/07/31 08:47:46;;;;;;;6.22;1.80;;;;;;;17.81;63.62;100166.56;10094478;28;20066;-68
2021/07/31 08:52:47;;;;;;;7.75;1.75;;;;;;;17.85;63.12;100162.66;10090468;28;20047;-68
2021/07/31 08:57:44;;;;;;;6.32;1.77;;;;;;;17.91;63.53;100156.78;10079376;28;20089;-68
2021/07/31 09:02:43;;;;;;;9.13;1.90;;;;;;;17.87;63.18;100154.78;10095502;28;20199;-68
2021/07/31 09:07:40;;;;;;;6.10;1.50;;;;;;;17.75;63.52;100174.34;10089945;28;20047;-68
2021/07/31 09:12:51;;;;;;;6.78;2.28;;;;;;;17.80;62.96;100157.44;10098709;28;20153;-68
2021/07/31 09:17:48;;;;;;;6.55;1.25;;;;;;;17.94;62.90;100148.53;10095000;28;20090;-69
2021/07/31 09:22:52;;;;;;;9.80;1.75;;;;;;;18.02;61.68;100166.75;10096826;28;20043;-67
2021/07/31 09:27:48;;;;;;;3.85;1.25;;;;;;;18.04;61.67;100147.03;10086039;28;20047;-69
2021/07/31 09:32:45;;;;;;;5.65;1.52;;;;;;;18.27;60.68;100147.59;10081573;28;20074;-69
2021/07/31 09:37:49;;;;;;;5.82;1.60;;;;;;;18.38;60.82;100144.91;10089144;28;20516;-69
2021/07/31 09:42:46;;;;;;;6.95;2.05;;;;;;;18.47;59.99;100150.09;10092531;28;20051;-68
2021/07/31 09:48:04;;;;;;;5.97;2.08;;;;;;;18.55;59.71;100148.19;10092359;28;20070;-69
2021/07/31 09:53:09;;;;;;;5.43;1.60;;;;;;;18.70;59.14;100127.69;10093001;28;20047;-68
2021/07/31 09:58:07;;;;;;;8.00;2.00;;;;;;;18.67;59.27;100132.03;10092578;28;20106;-68
2021/07/31 10:03:04;;;;;;;7.05;2.40;;;;;;;18.53;59.50;100129.19;10089893;28;20125;-68
2021/07/31 10:08:01;;;;;;;3.90;1.48;;;;;;;18.38;59.77;100121.97;10106573;28;20047;-68
2021/07/31 10:12:59;;;;;;;5.88;1.83;;;;;;;18.15;61.76;100131.31;10082528;28;20070;-68
2021/07/31 10:17:56;;;;;;;5.43;1.88;;;;;;;17.79;64.88;100130.97;10086726;28;20047;-67
2021/07/31 10:22:53;;;;;;;7.82;2.03;;;;;;;17.80;65.51;100120.69;10103101;28;20074;-68
2021/07/31 10:27:53;;;;;;;5.55;2.10;;;;;;;18.18;62.44;100113.94;10093362;28;20109;-67
2021/07/31 10:32:49;;;;;;;5.20;1.70;;;;;;;18.57;60.64;100118.94;10097818;28;20180;-65
2021/07/31 10:37:46;;;;;;;5.63;1.67;;;;;;;18.47;60.24;100114.09;10093510;28;20093;-69
2021/07/31 10:42:51;;;;;;;5.32;1.63;;;;;;;18.43;60.63;100113.31;10085304;28;20081;-70
2021/07/31 10:47:48;;;;;;;6.63;1.50;;;;;;;18.35;59.75;100128.28;10094417;28;20050;-71
2021/07/31 10:53:01;;;;;;;7.43;1.60;;;;;;;18.35;60.57;100128.28;10103392;28;20047;-68
2021/07/31 10:57:57;;;;;;;7.53;2.03;;;;;;;18.01;64.40;100120.09;10091151;28;20097;-68
2021/07/31 11:02:54;;;;;;;6.13;2.03;;;;;;;18.29;63.28;100120.34;10088312;28;20129;-69
2021/07/31 11:07:57;;;;;;;5.72;1.58;;;;;;;18.43;62.60;100099.47;10089848;28;20043;-69
2021/07/31 11:12:54;;;;;;;3.83;1.40;;;;;;;18.55;62.36;100088.06;10092215;28;20129;-69
2021/07/31 11:17:58;;;;;;;8.88;1.63;;;;;;;18.47;60.98;100130.72;10085837;28;20074;-69
2021/07/31 11:22:59;;;;;;;5.60;1.38;;;;;;;18.55;60.31;100115.75;10088316;28;20047;-69
2021/07/31 11:28:01;;;;;;;3.67;1.20;;;;;;;18.46;60.54;100101.47;10096705;28;20054;-69
2021/07/31 11:33:15;;;;;;;4.35;1.25;;;;;;;18.49;60.83;100084.06;10098455;28;20078;-70
2021/07/31 11:38:35;;;;;;;2.97;1.00;;;;;;;18.62;60.18;100109.47;10093168;28;20101;-70
2021/07/31 11:43:49;;;;;;;3.45;1.30;;;;;;;18.80;59.51;100071.59;10087417;28;20062;-69
2021/07/31 11:48:46;;;;;;;;;;;;;;;18.84;59.58;100082.69;10096973;28;20089;-70
2021/07/31 11:53:42;;;;;;;4.68;1.20;;;;;;;18.65;60.50;100072.69;10088712;28;20017;-70
2021/07/31 11:58:46;;;;;;;5.65;1.10;;;;;;;18.60;60.72;100082.16;10087683;28;20050;-69
2021/07/31 12:03:49;;;;;;;3.70;1.30;;;;;;;18.67;60.72;100096.03;10088166;28;20086;-69
2021/07/31 12:08:46;;;;;;;8.00;1.50;;;;;;;18.63;61.10;100095.22;10088390;28;20102;-69
2021/07/31 12:13:42;;;;;;;6.13;1.60;;;;;;;18.80;60.55;100112.34;10101117;28;20046;-69
2021/07/31 12:18:52;;;;;;;10.40;1.65;;;;;;;18.75;61.03;100118.22;10094401;28;20101;-69
2021/07/31 12:23:48;;;;;;;3.83;1.50;;;;;;;18.66;62.25;100137.97;10085880;28;20501;-69
2021/07/31 12:28:45;;;;;;;6.03;1.40;;;;;;;18.24;63.89;100145.59;10086285;28;20942;-69
2021/07/31 12:33:41;;;;;;;9.95;1.40;;;;;;;18.17;64.62;100140.03;10088405;28;20082;-69
2021/07/31 12:38:38;;;;;;;5.35;1.33;;;;;;;18.15;65.55;100175.56;10086397;28;20047;-70
2021/07/31 12:43:35;;;;;;;4.05;1.02;;;;;;;18.29;65.73;100141.69;10084094;28;20079;-67
2021/07/31 12:48:32;;;;;;;4.60;1.50;;;;;;;18.37;65.92;100148.06;10082611;28;20043;-67
2021/07/31 12:53:29;;;;;;;5.75;1.30;;;;;;;18.19;66.04;100176.38;10092403;28;20134;-66
2021/07/31 12:58:26;;;;;;;4.97;1.20;;;;;;;18.20;66.26;100175.22;10084451;28;20105;-67
2021/07/31 13:03:22;;;;;;;4.13;1.00;;;;;;;18.24;66.04;100181.56;10093619;28;20469;-68
2021/07/31 13:08:19;;;;;;;3.92;1.38;;;;;;;18.42;65.15;100178.13;10096576;28;20476;-68
2021/07/31 13:13:15;;;;;;;5.65;0.98;;;;;;;18.41;64.55;100190.41;10090916;28;20133;-68
2021/07/31 13:18:18;;;;;;;6.30;1.63;;;;;;;18.64;62.93;100202.03;10090392;28;20039;-69
2021/07/31 13:23:14;;;;;;;8.30;1.20;;;;;;;18.71;63.51;100196.53;10092205;28;20043;-68
2021/07/31 13:28:12;;;;;;;5.50;1.00;;;;;;;18.51;64.58;100190.47;10094398;28;20464;-68
2021/07/31 13:33:08;;;;;;;10.23;1.70;;;;;;;18.38;65.41;100221.59;10092294;28;20050;-68
2021/07/31 13:38:05;;;;;;;3.90;1.30;;;;;;;18.25;67.21;100238.50;10083585;28;20044;-69
2021/07/31 13:43:02;;;;;;;5.82;1.92;;;;;;;17.82;70.54;100246.38;10087690;28;20046;-68
2021/07/31 13:47:58;;;;;;;8.55;2.10;;;;;;;17.25;77.08;100262.22;10095852;28;20834;-69
2021/07/31 13:52:55;;;;;;;7.00;1.85;;;;;;;16.78;83.22;100252.47;10095953;28;20089;-69
2021/07/31 13:57:52;;;;;;;7.55;1.90;;;;;;;16.43;83.40;100250.72;10071399;28;20469;-68
2021/07/31 14:02:50;;;;;;;6.85;1.80;;;;;;;16.40;84.32;100259.72;10085567;28;20157;-69
2021/07/31 14:07:46;;;;;;;5.15;1.92;;;;;;;16.51;83.88;100257.16;10073338;28;20046;-69
2021/07/31 14:12:43;;;;;;;4.60;2.20;;;;;;;16.55;84.18;100272.59;10092100;28;20081;-69
2021/07/31 14:17:42;;;;;;;4.53;2.38;;;;;;;16.77;83.90;100275.69;10091761;28;20476;-69
2021/07/31 14:22:39;;;;;;;5.47;2.45;;;;;;;17.24;84.35;100271.69;10085895;28;20047;-69
2021/07/31 14:27:38;;;;;;;6.07;3.05;;;;;;;17.25;78.79;100267.75;10082881;28;20509;-69
2021/07/31 14:32:34;;;;;;;6.93;2.67;;;;;;;17.36;76.57;100279.75;10091681;28;20102;-68
2021/07/31 14:37:32;;;;;;;5.50;2.40;;;;;;;17.72;73.88;100276.63;10093719;28;20053;-69
2021/07/31 14:42:28;;;;;;;4.75;2.08;;;;;;;17.60;73.80;100277.69;10090719;28;20046;-69
2021/07/31 14:47:25;;;;;;;6.43;2.38;;;;;;;17.64;73.08;100273.00;10087684;28;20070;-69
2021/07/31 14:52:21;;;;;;;8.20;2.40;;;;;;;17.63;74.69;100282.44;10093180;28;20122;-68
2021/07/31 14:57:17;;;;;;;8.27;2.13;;;;;;;17.54;78.45;100339.97;10092189;28;20082;-69
2021/07/31 15:02:14;;;;;;;6.97;2.17;;;;;;;17.61;80.11;100307.69;10091914;28;20077;-68
2021/07/31 15:07:10;;;;;;;6.93;2.83;;;;;;;17.44;81.64;100313.81;10097698;28;20150;-69
2021/07/31 15:12:07;;;;;;;7.82;2.30;;;;;;;17.27;81.32;100326.22;10097858;28;20109;-68
2021/07/31 15:17:04;;;;;;;9.10;2.50;;;;;;;17.51;81.66;100326.91;10090667;28;20118;-69
2021/07/31 15:22:01;;;;;;;6.65;2.05;;;;;;;17.81;80.14;100338.78;10089923;28;20138;-69
2021/07/31 15:26:58;;;;;;;5.45;2.20;;;;;;;17.65;78.21;100335.41;10102503;28;20142;-69
2021/07/31 15:31:54;;;;;;;7.45;1.70;;;;;;;17.58;77.69;100329.78;10093739;28;20105;-68
2021/07/31 15:36:50;;;;;;;5.88;2.20;;;;;;;17.51;78.62;100337.97;10096181;28;20050;-69
2021/07/31 15:41:47;;;;;;;7.05;2.95;;;;;;;17.40;75.82;100341.38;10099078;28;20047;-69
2021/07/31 15:46:43;;;;;;;6.30;1.77;;;;;;;17.51;77.99;100352.59;10105508;28;20070;-69
2021/07/31 15:51:40;;;;;;;7.57;2.10;;;;;;;17.50;76.80;100350.19;10095626;28;20047;-69
2021/07/31 15:56:39;;;;;;;7.60;1.98;;;;;;;17.36;77.61;100368.19;10101139;28;20093;-68
2021/07/31 16:01:37;;;;;;;8.93;2.22;;;;;;;17.16;80.95;100370.25;10099232;28;20097;-69
2021/07/31 16:06:34;;;;;;;8.57;2.50;;;;;;;16.84;82.60;100383.53;10089385;28;20077;-68
2021/07/31 16:11:30;;;;;;;8.57;3.28;;;;;;;16.72;84.72;100378.94;10094740;28;20043;-69
2021/07/31 16:16:28;;;;;;;6.68;3.25;;;;;;;16.66;86.13;100387.91;10093454;28;20144;-68
2021/07/31 16:21:29;;;;;;;9.52;4.10;;;;;;;16.66;86.76;100385.13;10093724;28;20137;-68
2021/07/31 16:26:26;;;;;;;8.07;3.63;;;;;;;16.65;87.41;100372.53;10096921;28;20080;-68
2021/07/31 16:31:23;;;;;;;7.85;3.40;;;;;;;16.63;87.02;100370.91;10110151;28;20092;-68
2021/07/31 16:36:20;;;;;;;7.95;3.17;;;;;;;16.80;86.22;100374.38;10095135;28;20137;-69
2021/07/31 16:41:18;;;;;;;7.15;2.83;;;;;;;16.99;84.95;100379.84;10104039;28;20569;-68
2021/07/31 16:46:15;;;;;;;7.45;2.75;;;;;;;17.03;84.66;100383.47;10108806;28;20105;-69
2021/07/31 16:51:11;;;;;;;5.20;2.50;;;;;;;17.59;84.30;100392.16;10115449;28;20552;-65
2021/07/31 16:56:08;;;;;;;7.20;2.45;;;;;;;17.48;82.52;100391.25;10110373;28;20074;-65
2021/07/31 17:01:04;;;;;;;6.43;2.22;;;;;;;17.24;81.68;100387.72;10098323;28;20050;-65
2021/07/31 17:06:01;;;;;;;5.88;2.47;;;;;;;17.22;82.79;100388.09;10091898;28;20039;-65
2021/07/31 17:10:58;;;;;;;7.75;2.65;;;;;;;17.21;83.34;100397.53;10101334;28;20074;-64
2021/07/31 17:15:54;;;;;;;6.70;2.45;;;;;;;17.27;83.20;100403.56;10096312;28;20050;-65
2021/07/31 17:20:51;;;;;;;5.57;2.38;;;;;;;17.21;83.34;100399.50;10092954;28;20078;-65
2021/07/31 17:25:47;;;;;;;6.90;2.90;;;;;;;17.17;83.73;100401.41;10100740;28;20137;-65
2021/07/31 17:30:44;;;;;;;5.72;2.97;;;;;;;17.10;84.86;100398.53;10095707;28;20234;-65
2021/07/31 17:35:40;;;;;;;11.52;3.53;;;;;;;17.34;85.47;100397.34;10093429;28;20057;-65
2021/07/31 17:40:37;;;;;;;7.13;3.28;;;;;;;17.32;84.56;100403.25;10104437;28;20073;-65
2021/07/31 17:45:34;;;;;;;6.55;2.40;;;;;;;17.29;84.00;100405.94;10096674;28;20392;-65
2021/07/31 17:50:31;;;;;;;9.05;3.78;;;;;;;17.22;84.75;100401.91;10081706;28;20121;-66
2021/07/31 17:55:27;;;;;;;7.38;2.95;;;;;;;17.02;85.09;100403.94;10094730;28;20555;-65
2021/07/31 18:00:24;;;;;;;6.68;3.30;;;;;;;17.08;85.24;100400.88;10092855;28;20089;-64
2021/07/31 18:05:20;;;;;;;6.18;3.30;;;;;;;17.08;85.14;100406.41;10086829;28;20532;-65
2021/07/31 18:10:17;;;;;;;7.55;3.47;;;;;;;17.01;85.26;100407.91;10093474;28;20117;-65
2021/07/31 18:15:13;;;;;;;7.20;3.05;;;;;;;17.14;85.80;100422.28;10087689;28;20106;-64
2021/07/31 18:20:10;;;;;;;6.50;3.45;;;;;;;17.20;86.35;100420.03;10093668;28;20075;-64
2021/07/31 18:25:08;;;;;;;9.90;3.60;;;;;;;17.26;85.93;100432.34;10090242;28;20130;-65
2021/07/31 18:30:05;;;;;;;6.28;2.97;;;;;;;17.04;85.08;100429.25;10083133;28;20067;-66
2021/07/31 18:35:01;;;;;;;7.68;3.40;;;;;;;17.02;85.16;100437.09;10084977;28;20125;-66
2021/07/31 18:39:58;;;;;;;9.68;3.90;;;;;;;16.98;85.24;100433.47;10086572;28;20484;-66
2021/07/31 18:44:56;;;;;;;7.47;3.63;;;;;;;16.92;85.02;100443.25;10095785;28;20038;-67
2021/07/31 18:49:52;;;;;;;10.73;3.47;;;;;;;16.83;85.64;100437.16;10092315;28;20085;-66
2021/07/31 18:54:49;;;;;;;10.77;4.00;;;;;;;16.76;85.62;100450.81;10094202;28;20093;-66
2021/07/31 18:59:45;;;;;;;7.50;3.97;;;;;;;16.75;86.01;100454.72;10093324;28;20043;-66
2021/07/31 19:04:42;;;;;;;7.55;4.40;;;;;;;16.69;86.22;100461.72;10076884;28;20605;-66
2021/07/31 19:09:38;;;;;;;9.00;3.85;;;;;;;16.61;86.22;100456.03;10081133;28;20485;-66
2021/07/31 19:14:35;;;;;;;11.35;5.15;;;;;;;16.61;86.21;100460.75;10090764;28;20047;-66
2021/07/31 19:19:32;;;;;;;11.32;4.85;;;;;;;16.59;85.84;100457.56;10093925;28;20043;-66
2021/07/31 19:24:29;;;;;;;7.68;3.92;;;;;;;16.56;85.74;100461.06;10113197;28;21902;-66
2021/07/31 19:29:26;;;;;;;10.20;4.80;;;;;;;16.51;85.61;100467.69;10083391;28;20055;-67
2021/07/31 19:34:22;;;;;;;9.43;4.50;;;;;;;16.50;85.39;100463.34;10102545;28;20097;-66
2021/07/31 19:39:19;;;;;;;11.48;4.35;;;;;;;16.44;85.65;100456.50;10078618;28;20568;-66
2021/07/31 19:44:16;;;;;;;9.23;4.70;;;;;;;16.49;84.97;100461.72;10096504;28;20074;-66
2021/07/31 19:49:12;;;;;;;9.30;4.00;;;;;;;16.48;85.04;100473.13;10083794;28;20047;-66
2021/07/31 19:54:13;;;;;;;9.15;3.83;;;;;;;16.45;84.61;100482.91;10094556;28;20541;-66
2021/07/31 19:59:11;;;;;;;11.43;5.03;;;;;;;16.46;84.71;100487.28;10101194;28;20043;-64
2021/07/31 20:04:07;;;;;;;8.82;3.97;;;;;;;16.42;84.72;100492.72;10095964;28;20108;-66
2021/07/31 20:09:04;;;;;;;9.95;4.53;;;;;;;16.45;84.58;100499.47;10109873;28;20050;-66
2021/07/31 20:14:00;;;;;;;8.38;4.35;;;;;;;16.46;83.92;100498.34;10107895;28;20078;-66
2021/07/31 20:18:57;;;;;;;8.02;3.97;;;;;;;16.45;83.79;100507.75;10100878;28;20061;-66
2021/07/31 20:23:54;;;;;;;8.95;3.80;;;;;;;16.41;83.73;100501.38;10096343;28;20141;-66
2021/07/31 20:28:51;;;;;;;10.25;3.70;;;;;;;16.32;83.95;100509.06;10100110;28;20142;-66
2021/07/31 20:33:47;;;;;;;12.38;3.50;;;;;;;16.30;84.31;100511.41;10102736;28;20046;-66
2021/07/31 20:38:44;;;;;;;7.35;3.28;;;;;;;16.24;84.63;100523.88;10107728;28;20047;-65
2021/07/31 20:43:42;;;;;;;7.38;2.47;;;;;;;16.18;84.61;100515.88;10109500;28;20081;-66
2021/07/31 20:48:38;;;;;;;6.90;2.40;;;;;;;16.11;84.65;100526.75;10108250;28;20137;-66
2021/07/31 20:53:35;;;;;;;5.90;2.30;;;;;;;16.15;84.39;100527.63;10112366;28;20050;-66
2021/07/31 20:58:31;;;;;;;9.32;2.38;;;;;;;16.12;84.41;100544.88;10105208;28;20051;-67
2021/07/31 21:03:28;;;;;;;6.20;2.42;;;;;;;16.12;84.01;100544.88;10097507;28;20081;-67
2021/07/31 21:08:25;;;;;;;6.15;2.38;;;;;;;16.13;84.46;100545.69;10090826;28;20484;-66
2021/07/31 21:13:21;;;;;;;6.00;2.45;;;;;;;16.22;84.79;100548.25;10087453;28;20066;-67
2021/07/31 21:18:17;;;;;;;4.93;2.45;;;;;;;16.28;85.12;100563.38;10084951;28;20141;-66
2021/07/31 21:23:14;;;;;;;7.43;3.03;;;;;;;16.28;85.14;100558.63;10083560;28;20701;-66
2021/07/31 21:28:10;;;;;;;7.18;3.08;;;;;;;16.28;85.60;100563.38;10091344;28;20075;-66
2021/07/31 21:33:07;;;;;;;13.10;3.97;;;;;;;16.30;86.20;100566.56;10097825;28;20147;-65
2021/07/31 21:38:03;;;;;;;11.35;3.72;;;;;;;16.30;86.35;100577.59;10083819;28;20141;-65
2021/07/31 21:43:00;;;;;;;9.10;3.80;;;;;;;16.30;86.19;100583.13;10085438;28;20165;-65
2021/07/31 21:47:56;;;;;;;9.65;3.78;;;;;;;16.30;86.61;100581.16;10086486;28;20050;-65
2021/07/31 21:52:53;;;;;;;10.00;3.95;;;;;;;16.26;86.55;100579.47;10092050;28;20050;-65
2021/07/31 21:57:49;;;;;;;9.65;3.90;;;;;;;16.31;86.53;100579.19;10096915;28;20082;-65
2021/07/31 22:02:46;;;;;;;7.88;3.85;;;;;;;16.34;86.35;100589.53;10093615;28;20516;-66
2021/07/31 22:07:42;;;;;;;6.80;3.63;;;;;;;16.32;86.53;100583.56;10084677;28;20572;-65
2021/07/31 22:12:39;;;;;;;9.23;3.70;;;;;;;16.23;87.30;100588.47;10103967;28;20660;-65
2021/07/31 22:17:35;;;;;;;7.18;4.00;;;;;;;16.28;87.41;100585.44;10100916;28;20085;-66
2021/07/31 22:22:32;;;;;;;8.23;3.30;;;;;;;16.16;87.83;100589.91;10112764;28;20078;-66
2021/07/31 22:27:29;;;;;;;6.65;3.35;;;;;;;16.17;87.57;100588.72;10104573;28;20714;-66
2021/07/31 22:32:26;;;;;;;8.90;4.32;;;;;;;16.14;87.69;100592.22;10087401;28;20456;-69
2021/07/31 22:37:22;;;;;;;10.07;3.88;;;;;;;16.13;87.80;100590.63;10088674;28;20074;-70
2021/07/31 22:42:19;;;;;;;6.53;3.65;;;;;;;16.11;87.71;100587.44;10087951;28;20102;-70
2021/07/31 22:47:16;;;;;;;9.05;3.80;;;;;;;16.15;87.78;100593.84;10095461;28;20130;-69